createdAt,value
2022-12-03T00:00:18.219Z,102300.44
2022-12-03T00:03:21.031Z,102301.31
2022-12-03T00:06:24.128Z,102298.69
2022-12-03T00:09:26.891Z,102306.59
2022-12-03T00:12:29.528Z,102298.53
2022-12-03T00:15:33.612Z,102303.03
2022-12-03T00:18:36.380Z,102301.22
2022-12-03T00:21:39.097Z,102301.28
2022-12-03T00:24:41.795Z,102299.44
2022-12-03T00:27:44.604Z,102305.66
2022-12-03T00:30:48.969Z,102287.91
2022-12-03T00:33:52.179Z,102292.84
2022-12-03T00:36:54.872Z,102287.78
2022-12-03T00:39:57.982Z,102295.78
2022-12-03T00:43:00.701Z,102294.94
2022-12-03T00:46:04.810Z,102301.16
2022-12-03T00:49:07.705Z,102288.91
2022-12-03T00:52:10.396Z,102293.19
2022-12-03T00:55:13.394Z,102302.78
2022-12-03T00:58:16.086Z,102310.53
2022-12-03T01:01:20.238Z,102299.25
2022-12-03T01:04:23.112Z,102309.84
2022-12-03T01:07:25.954Z,102304.50
2022-12-03T01:10:28.719Z,102307.06
2022-12-03T01:13:31.399Z,102306.88
2022-12-03T01:16:36.164Z,102313.13
2022-12-03T01:19:41.271Z,102314.91
2022-12-03T01:22:47.723Z,102308.44
2022-12-03T01:25:50.462Z,102308.72
2022-12-03T01:28:53.666Z,102310.44
2022-12-03T01:32:15.076Z,102309.41
2022-12-03T01:35:18.012Z,102298.88
2022-12-03T01:38:21.059Z,102313.16
2022-12-03T01:41:26.008Z,102308.03
2022-12-03T01:44:31.324Z,102300.16
2022-12-03T01:47:37.795Z,102312.28
2022-12-03T01:50:40.506Z,102308.72
2022-12-03T01:53:44.753Z,102311.41
2022-12-03T01:56:48.337Z,102313.16
2022-12-03T01:59:53.020Z,102309.59
2022-12-03T02:02:58.740Z,102319.28
2022-12-03T02:06:01.471Z,102304.44
2022-12-03T02:09:08.414Z,102315.94
2022-12-03T02:12:11.433Z,102308.00
2022-12-03T02:15:14.558Z,102301.03
2022-12-03T02:18:19.526Z,102306.28
2022-12-03T02:21:36.923Z,102309.66
2022-12-03T02:24:47.978Z,102307.06
2022-12-03T02:27:54.849Z,102311.44
2022-12-03T02:30:57.668Z,102317.59
2022-12-03T02:34:00.829Z,102309.56
2022-12-03T02:37:05.204Z,102319.28
2022-12-03T02:40:12.264Z,102309.53
2022-12-03T02:43:19.042Z,102317.44
2022-12-03T02:46:21.754Z,102317.38
2022-12-03T02:49:24.533Z,102306.81
2022-12-03T02:52:27.858Z,102311.31
2022-12-03T02:55:36.754Z,102308.69
2022-12-03T03:01:51.956Z,102304.34
2022-12-03T03:04:55.257Z,102310.41
2022-12-03T03:07:59.619Z,102310.47
2022-12-03T03:11:03.227Z,102307.78
2022-12-03T03:14:05.952Z,102306.91
2022-12-03T03:17:09.918Z,102308.56
2022-12-03T03:20:13.413Z,102302.38
2022-12-03T03:23:17.993Z,102305.88
2022-12-03T03:26:20.844Z,102300.63
2022-12-03T03:29:23.681Z,102297.81
2022-12-03T03:32:29.014Z,102308.59
2022-12-03T03:35:31.986Z,102303.63
2022-12-03T03:38:35.560Z,102303.53
2022-12-03T03:41:39.296Z,102296.75
2022-12-03T03:44:42.169Z,102293.44
2022-12-03T03:47:46.436Z,102291.63
2022-12-03T03:50:49.868Z,102288.97
2022-12-03T03:53:53.013Z,102298.53
2022-12-03T03:56:55.725Z,102292.56
2022-12-03T03:59:59.343Z,102294.34
2022-12-03T04:03:04.157Z,102291.69
2022-12-03T04:06:07.465Z,102295.25
2022-12-03T04:09:10.103Z,102286.38
2022-12-03T04:12:30.897Z,102285.56
2022-12-03T04:15:33.525Z,102293.31
2022-12-03T04:18:46.427Z,102292.44
2022-12-03T04:22:06.437Z,102289.81
2022-12-03T04:25:28.687Z,102295.00
2022-12-03T04:28:48.840Z,102298.03
2022-12-03T04:32:09.173Z,102300.22
2022-12-03T04:35:45.361Z,102294.06
2022-12-03T04:38:48.021Z,102296.34
2022-12-03T04:41:50.648Z,102295.81
2022-12-03T04:44:53.526Z,102294.94
2022-12-03T04:47:56.413Z,102290.44
2022-12-03T04:51:00.490Z,102290.50
2022-12-03T04:54:03.892Z,102291.31
2022-12-03T04:57:08.130Z,102287.94
2022-12-03T05:00:12.215Z,102292.78
2022-12-03T05:03:14.856Z,102286.00
2022-12-03T05:06:18.824Z,102277.38
2022-12-03T05:09:21.796Z,102274.69
2022-12-03T05:12:24.426Z,102283.16
2022-12-03T05:15:27.068Z,102275.41
2022-12-03T05:18:30.415Z,102280.53
2022-12-03T05:21:34.678Z,102278.91
2022-12-03T05:24:37.290Z,102276.34
2022-12-03T05:27:39.971Z,102277.94
2022-12-03T05:30:42.746Z,102269.31
2022-12-03T05:33:45.398Z,102266.75
2022-12-03T05:36:49.368Z,102272.78
2022-12-03T05:39:52.223Z,102255.25
2022-12-03T05:42:54.903Z,102265.00
2022-12-03T05:45:57.599Z,102271.88
2022-12-03T05:49:00.283Z,102273.72
2022-12-03T05:52:04.633Z,102278.41
2022-12-03T05:55:07.916Z,102276.91
2022-12-03T05:58:11.630Z,102279.72
2022-12-03T06:01:14.287Z,102270.09
2022-12-03T06:04:16.895Z,102268.06
2022-12-03T06:07:20.833Z,102272.38
2022-12-03T06:10:25.122Z,102264.78
2022-12-03T06:13:27.740Z,102264.69
2022-12-03T06:16:30.469Z,102252.53
2022-12-03T06:19:33.137Z,102260.50
2022-12-03T06:22:37.092Z,102259.63
2022-12-03T06:25:39.703Z,102252.69
2022-12-03T06:28:46.182Z,102254.41
2022-12-03T06:31:48.810Z,102241.31
2022-12-03T06:34:51.782Z,102250.75
2022-12-03T06:37:55.996Z,102247.31
2022-12-03T06:40:58.608Z,102242.03
2022-12-03T06:44:01.368Z,102240.25
2022-12-03T06:47:04.134Z,102246.50
2022-12-03T06:50:08.697Z,102245.56
2022-12-03T06:53:12.671Z,102249.13
2022-12-03T06:56:17.871Z,102254.22
2022-12-03T06:59:24.050Z,102249.09
2022-12-03T07:02:26.736Z,102260.50
2022-12-03T07:05:29.403Z,102259.59
2022-12-03T07:08:33.333Z,102251.72
2022-12-03T07:11:40.654Z,102257.00
2022-12-03T07:14:43.318Z,102260.53
2022-12-03T07:17:45.949Z,102267.56
2022-12-03T07:20:48.845Z,102260.56
2022-12-03T07:23:52.856Z,102257.78
2022-12-03T07:26:55.593Z,102265.44
2022-12-03T07:29:58.246Z,102257.19
2022-12-03T07:33:00.864Z,102252.41
2022-12-03T07:36:03.472Z,102250.72
2022-12-03T07:39:07.566Z,102250.81
2022-12-03T07:42:10.284Z,102254.22
2022-12-03T07:45:12.887Z,102244.75
2022-12-03T07:48:15.597Z,102247.38
2022-12-03T07:51:18.200Z,102244.66
2022-12-03T07:54:22.415Z,102243.88
2022-12-03T07:57:25.049Z,102248.22
2022-12-03T08:00:28.211Z,102252.69
2022-12-03T08:03:30.957Z,102249.78
2022-12-03T08:06:33.611Z,102252.66
2022-12-03T08:09:40.466Z,102252.63
2022-12-03T08:12:43.075Z,102243.94
2022-12-03T08:15:45.883Z,102242.19
2022-12-03T08:18:49.628Z,102242.19
2022-12-03T08:21:56.496Z,102233.59
2022-12-03T08:25:03.670Z,102238.91
2022-12-03T08:28:13.376Z,102237.13
2022-12-03T08:31:19.904Z,102231.94
2022-12-03T08:34:24.521Z,102241.56
2022-12-03T08:37:27.169Z,102230.19
2022-12-03T08:40:36.161Z,102231.13
2022-12-03T08:43:41.988Z,102230.25
2022-12-03T08:46:45.338Z,102234.56
2022-12-03T08:49:54.859Z,102218.75
2022-12-03T08:53:01.383Z,102224.19
2022-12-03T08:56:13.549Z,102214.97
2022-12-03T08:59:26.685Z,102226.69
2022-12-03T09:02:34.130Z,102224.88
2022-12-03T09:05:37.336Z,102221.56
2022-12-03T09:08:39.945Z,102206.78
2022-12-03T09:11:44.241Z,102200.75
2022-12-03T09:14:47.012Z,102200.81
2022-12-03T09:17:49.885Z,102201.66
2022-12-03T09:20:52.507Z,102202.53
2022-12-03T09:23:55.137Z,102213.03
2022-12-03T09:26:59.107Z,102201.59
2022-12-03T09:30:01.842Z,102202.34
2022-12-03T09:33:04.561Z,102203.34
2022-12-03T09:36:07.457Z,102200.72
2022-12-03T09:39:10.114Z,102201.66
2022-12-03T09:42:14.159Z,102193.81
2022-12-03T09:45:17.542Z,102195.56
2022-12-03T09:48:21.643Z,102181.53
2022-12-03T09:51:25.785Z,102180.75
2022-12-03T09:54:29.990Z,102194.78
2022-12-03T09:57:34.009Z,102193.94
2022-12-03T10:00:36.633Z,102195.59
2022-12-03T10:03:42.970Z,102187.81
2022-12-03T10:06:46.406Z,102186.03
2022-12-03T10:09:49.245Z,102194.03
2022-12-03T10:12:53.852Z,102185.34
2022-12-03T10:15:58.486Z,102184.25
2022-12-03T10:19:02.072Z,102187.78
2022-12-03T10:22:04.750Z,102179.06
2022-12-03T10:25:10.440Z,102174.63
2022-12-03T10:28:14.439Z,102168.63
2022-12-03T10:31:17.114Z,102160.91
2022-12-03T10:34:25.898Z,102167.91
2022-12-03T10:37:28.532Z,102154.75
2022-12-03T10:40:33.021Z,102161.06
2022-12-03T10:43:36.976Z,102157.56
2022-12-03T10:46:39.724Z,102155.88
2022-12-03T10:49:43.199Z,102160.88
2022-12-03T10:52:47.004Z,102149.63
2022-12-03T10:55:52.281Z,102154.94
2022-12-03T10:58:56.470Z,102149.69
2022-12-03T11:01:59.212Z,102145.25
2022-12-03T11:05:01.918Z,102134.72
2022-12-03T11:08:05.081Z,102124.19
2022-12-03T11:11:16.846Z,102130.41
2022-12-03T11:14:57.589Z,102119.88
2022-12-03T11:18:01.741Z,102127.75
2022-12-03T11:21:06.555Z,102118.09
2022-12-03T11:24:26.794Z,102113.69
2022-12-03T11:27:29.452Z,102106.59
2022-12-03T11:31:02.126Z,102104.75
2022-12-03T11:34:49.835Z,102110.13
2022-12-03T11:37:54.244Z,102107.50
2022-12-03T11:41:10.456Z,102096.03
2022-12-03T11:44:32.037Z,102094.03
2022-12-03T11:47:39.465Z,102083.72
2022-12-03T11:50:43.826Z,102083.72
2022-12-03T11:53:48.229Z,102083.66
2022-12-03T11:56:52.816Z,102088.88
2022-12-03T12:00:07.708Z,102084.44
2022-12-03T12:03:24.239Z,102074.94
2022-12-03T12:06:27.069Z,102070.50
2022-12-03T12:09:50.521Z,102061.81
2022-12-03T12:12:55.065Z,102058.41
2022-12-03T12:15:58.221Z,102055.69
2022-12-03T12:19:31.283Z,102043.50
2022-12-03T12:22:33.913Z,102041.75
2022-12-03T12:25:40.651Z,102039.94
2022-12-03T12:28:43.263Z,102033.81
2022-12-03T12:31:50.782Z,102029.25
2022-12-03T12:35:01.226Z,102028.50
2022-12-03T12:38:14.627Z,102019.63
2022-12-03T12:41:18.628Z,102017.06
2022-12-03T12:44:23.326Z,102018.91
2022-12-03T12:47:26.208Z,102014.56
2022-12-03T12:50:28.864Z,102011.91
2022-12-03T12:53:33.262Z,102010.88
2022-12-03T12:56:37.582Z,102010.88
2022-12-03T12:59:40.522Z,102010.81
2022-12-03T13:02:46.713Z,102003.06
2022-12-03T13:05:50.868Z,102003.03
2022-12-03T13:08:54.534Z,101999.50
2022-12-03T13:12:00.444Z,102008.13
2022-12-03T13:15:03.219Z,101987.25
2022-12-03T13:18:20.855Z,101994.16
2022-12-03T13:21:26.538Z,101999.53
2022-12-03T13:24:35.108Z,101993.41
2022-12-03T13:27:39.071Z,101990.84
2022-12-03T13:30:41.739Z,101997.00
2022-12-03T13:33:44.406Z,101997.00
2022-12-03T13:36:53.571Z,102004.06
2022-12-03T13:40:10.387Z,102001.34
2022-12-03T13:43:16.808Z,102006.66
2022-12-03T13:46:19.666Z,101997.03
2022-12-03T13:49:24.898Z,101997.84
2022-12-03T13:52:27.915Z,101990.81
2022-12-03T13:55:32.159Z,101992.56
2022-12-03T13:58:36.168Z,101997.78
2022-12-03T14:01:38.844Z,101996.09
2022-12-03T14:04:41.684Z,101988.16
2022-12-03T14:07:44.377Z,101985.47
2022-12-03T14:10:47.172Z,101984.47
2022-12-03T14:13:51.146Z,101983.72
2022-12-03T14:16:59.540Z,101989.06
2022-12-03T14:20:03.748Z,101991.69
2022-12-03T14:23:06.417Z,101997.81
2022-12-03T14:26:09.069Z,101990.84
2022-12-03T14:29:13.116Z,101993.47
2022-12-03T14:32:15.796Z,101993.47
2022-12-03T14:35:18.607Z,101992.56
2022-12-03T14:38:21.262Z,101989.03
2022-12-03T14:41:41.636Z,101982.94
2022-12-03T14:44:47.255Z,101981.16
2022-12-03T14:47:49.916Z,101975.00
2022-12-03T14:50:52.520Z,101969.75
2022-12-03T14:53:55.143Z,101976.78
2022-12-03T14:56:57.864Z,101976.75
2022-12-03T15:00:01.888Z,101975.84
2022-12-03T15:03:04.656Z,101969.72
2022-12-03T15:06:07.818Z,101978.53
2022-12-03T15:09:11.063Z,101971.50
2022-12-03T15:12:13.742Z,101975.00
2022-12-03T15:15:17.823Z,101962.72
2022-12-03T15:18:20.430Z,101970.63
2022-12-03T15:21:23.045Z,101967.13
2022-12-03T15:24:25.644Z,101961.88
2022-12-03T15:27:28.296Z,101954.88
2022-12-03T15:30:35.270Z,101966.25
2022-12-03T15:33:37.873Z,101964.47
2022-12-03T15:36:40.519Z,101960.97
2022-12-03T15:39:48.386Z,101959.22
2022-12-03T15:42:51.249Z,101957.47
2022-12-03T15:45:55.519Z,101961.81
2022-12-03T15:49:21.983Z,101955.69
2022-12-03T15:52:24.630Z,101953.97
2022-12-03T15:55:27.285Z,101955.69
2022-12-03T15:58:29.949Z,101948.72
2022-12-03T16:01:32.827Z,101950.41
2022-12-03T16:04:37.010Z,101953.97
2022-12-03T16:07:40.020Z,101950.44
2022-12-03T16:10:42.813Z,101948.69
2022-12-03T16:13:45.491Z,101954.78
2022-12-03T16:16:48.163Z,101943.41
2022-12-03T16:19:52.560Z,101953.00
2022-12-03T16:22:56.223Z,101953.88
2022-12-03T16:25:58.851Z,101950.38
2022-12-03T16:29:01.604Z,101947.75
2022-12-03T16:32:04.361Z,101946.00
2022-12-03T16:35:09.057Z,101942.47
2022-12-03T16:38:11.672Z,101951.28
2022-12-03T16:41:14.299Z,101950.38
2022-12-03T16:44:32.464Z,101948.59
2022-12-03T16:47:35.342Z,101957.38
2022-12-03T16:50:39.957Z,101945.94
2022-12-03T16:53:42.748Z,101939.84
2022-12-03T16:56:45.461Z,101945.13
2022-12-03T16:59:48.174Z,101945.13
2022-12-03T17:02:50.895Z,101942.47
2022-12-03T17:05:54.893Z,101945.06
2022-12-03T17:08:57.515Z,101944.16
2022-12-03T17:12:00.142Z,101947.72
2022-12-03T17:15:02.767Z,101949.47
2022-12-03T17:18:05.672Z,101946.84
2022-12-03T17:21:09.629Z,101945.97
2022-12-03T17:24:12.267Z,101947.78
2022-12-03T17:27:15.589Z,101945.13
2022-12-03T17:30:18.737Z,101950.31
2022-12-03T17:33:21.359Z,101948.59
2022-12-03T17:36:25.697Z,101944.97
2022-12-03T17:39:28.385Z,101933.31
2022-12-03T17:42:31.043Z,101935.34
2022-12-03T17:45:33.652Z,101936.28
2022-12-03T17:48:36.659Z,101940.63
2022-12-03T17:51:40.632Z,101938.84
2022-12-03T17:55:09.232Z,101931.88
2022-12-03T17:58:05.931Z,101935.41
2022-12-03T18:01:10.368Z,101940.66
2022-12-03T18:04:13.573Z,101945.00
2022-12-03T18:07:17.597Z,101945.91
2022-12-03T18:10:20.249Z,101944.84
2022-12-03T18:13:22.914Z,101948.47
2022-12-03T18:16:25.960Z,101944.13
2022-12-03T18:19:28.610Z,101950.28
2022-12-03T18:22:32.700Z,101950.28
2022-12-03T18:25:35.379Z,101947.63
2022-12-03T18:28:38.757Z,101949.28
2022-12-03T18:31:41.356Z,101947.50
2022-12-03T18:34:44.193Z,101961.47
2022-12-03T18:37:50.317Z,101951.88
2022-12-03T18:40:56.976Z,101964.06
2022-12-03T18:43:59.597Z,101959.75
2022-12-03T18:47:02.537Z,101958.97
2022-12-03T18:50:06.396Z,101953.66
2022-12-03T18:53:12.692Z,101950.16
2022-12-03T18:56:15.802Z,101951.03
2022-12-03T18:59:18.389Z,101952.72
2022-12-03T19:05:44.794Z,101948.31
2022-12-03T19:08:53.890Z,101944.81
2022-12-03T19:11:56.514Z,101946.53
2022-12-03T19:14:59.129Z,101943.03
2022-12-03T19:18:01.735Z,101944.78
2022-12-03T19:21:08.112Z,101952.72
2022-12-03T19:24:27.534Z,101941.28
2022-12-03T19:27:30.980Z,101947.41
2022-12-03T19:30:33.648Z,101950.06
2022-12-03T19:33:36.431Z,101947.44
2022-12-03T19:36:39.047Z,101952.66
2022-12-03T19:39:43.149Z,101950.97
2022-12-03T19:42:45.746Z,101955.22
2022-12-03T19:45:48.392Z,101962.03
2022-12-03T19:48:51.329Z,101972.66
2022-12-03T19:51:53.994Z,101955.22
2022-12-03T19:54:57.957Z,101964.81
2022-12-03T19:58:00.591Z,101965.66
2022-12-03T20:01:07.788Z,101964.84
2022-12-03T20:04:12.343Z,101981.41
2022-12-03T20:07:14.977Z,101973.34
2022-12-03T20:10:19.168Z,101973.28
2022-12-03T20:13:21.771Z,101968.09
2022-12-03T20:16:25.503Z,101960.34
2022-12-03T20:19:28.190Z,101970.69
2022-12-03T20:22:30.810Z,101968.47
2022-12-03T20:25:37.617Z,101979.19
2022-12-03T20:28:41.274Z,101982.97
2022-12-03T20:31:43.939Z,101982.09
2022-12-03T20:34:46.917Z,101980.25
2022-12-03T20:37:49.546Z,101977.56
2022-12-03T20:40:53.820Z,101971.56
2022-12-03T20:43:56.601Z,101969.88
2022-12-03T20:46:59.258Z,101971.44
2022-12-03T20:50:01.897Z,101967.06
2022-12-03T20:53:23.748Z,101959.22
2022-12-03T20:56:31.404Z,101961.84
2022-12-03T20:59:34.079Z,101964.56
2022-12-03T21:02:38.330Z,101968.75
2022-12-03T21:05:42.476Z,101974.13
2022-12-03T21:08:45.860Z,101958.44
2022-12-03T21:11:49.977Z,101961.06
2022-12-03T21:14:52.604Z,101956.66
2022-12-03T21:17:55.327Z,101949.78
2022-12-03T21:21:00.720Z,101956.78
2022-12-03T21:24:03.364Z,101955.03
2022-12-03T21:27:07.343Z,101954.94
2022-12-03T21:30:10.520Z,101959.41
2022-12-03T21:33:13.161Z,101954.16
2022-12-03T21:36:16.909Z,101955.03
2022-12-03T21:39:19.847Z,101957.72
2022-12-03T21:42:36.631Z,101956.69
2022-12-03T21:45:40.783Z,101955.00
2022-12-03T21:48:43.684Z,101949.88
2022-12-03T21:51:46.688Z,101957.75
2022-12-03T21:54:49.379Z,101960.38
2022-12-03T21:57:53.463Z,101953.13
2022-12-03T22:00:56.168Z,101955.91
2022-12-03T22:03:58.872Z,101955.81
2022-12-03T22:07:01.519Z,101951.81
2022-12-03T22:10:04.323Z,101956.47
2022-12-03T22:13:08.562Z,101959.22
2022-12-03T22:16:13.250Z,101958.50
2022-12-03T22:19:15.889Z,101961.06
2022-12-03T22:22:18.804Z,101952.38
2022-12-03T22:25:21.475Z,101958.34
2022-12-03T22:28:25.486Z,101953.03
2022-12-03T22:31:28.170Z,101955.72
2022-12-03T22:34:30.914Z,101951.44
2022-12-03T22:37:33.656Z,101947.91
2022-12-03T22:40:36.302Z,101948.88
2022-12-03T22:43:40.547Z,101951.44
2022-12-03T22:46:43.342Z,101952.44
2022-12-03T22:49:46.050Z,101951.53
2022-12-03T22:52:48.644Z,101952.38
2022-12-03T22:55:55.957Z,101955.88
2022-12-03T22:59:00.112Z,101955.81
2022-12-03T23:02:02.752Z,101952.31
2022-12-03T23:05:06.756Z,101935.66
2022-12-03T23:08:11.780Z,101941.53
2022-12-03T23:11:14.791Z,101940.81
2022-12-03T23:14:18.800Z,101931.97
2022-12-03T23:17:21.466Z,101946.16
2022-12-03T23:20:24.388Z,101936.53
2022-12-03T23:23:28.969Z,101943.63
2022-12-03T23:26:34.136Z,101937.56
2022-12-03T23:29:38.096Z,101935.50
2022-12-03T23:32:41.916Z,101942.66
2022-12-03T23:35:44.643Z,101939.13
2022-12-03T23:38:47.769Z,101945.38
2022-12-03T23:41:50.924Z,101936.28
2022-12-03T23:44:54.940Z,101939.16
2022-12-03T23:47:58.466Z,101940.13
2022-12-03T23:51:06.125Z,101938.41
2022-12-03T23:54:08.767Z,101947.97
2022-12-03T23:57:12.568Z,101938.28
